Pagina principale
METAR-TAF:

METAR-TAF

Aeroporti :

Les Ajoncs

La Roche-sur-Yon, Francia

latitudine: 46-42N, longitudine: 001-23W, altezza: 90 m

Osservazione

Il bollettino è stato emesso 47 minuti fa, alle 00:00 UTC
Vento 8 kt da nord-est
Temperature 15°C
Umidità 63%
Pressione 1015 hPa
Visibilità 10 km o più
nessuna nube inferiore a 1500 m e nessun cumulonembo

METAR: LFRI 310000Z AUTO 05008KT CAVOK 15/08 Q1015

Ora: 02:47 (00:47 UTC)


TAF: mancante

Osservazioni e previsioni meteorologiche di più di 4000 aeroporti (messaggi METAR e TAF).

Le stazioni disponibili sono rappresentate dai dischi gialli e rossi sulla carta.

Puntare il mouse per vedere il nome della stazione.

Clicca sopra per visualizzare le osservazioni e previsioni meteorologiche.

Per cambiare la mappa : fare clic sui pulsanti verdi con una croce nera per ingrandire, il pulsante verde con un trattino per diminuire, o sulla freccia verde per le mappe adiacenti.


METAR-TAF: